Mukdahan, Thailand

3:11 AM ICT on August 26, 2016 (GMT +0700)
Nakhon Phanom | | Change Station

Elev 584 ft 17.38 °N, 104.64 °E | Updated 11 minutes ago

Overcast
Overcast
79 °F
Feels Like 79 °F
N
4
Wind Variable Wind from East

Today
High -- | Low -- °F
--% Chance of Precip.
Yesterday
High -- | Low -- °F
Precip. -- in
Pressure 29.71 in
Visibility 6.2 miles
Clouds Few 400 ft
Overcast 18000 ft
Dew Point 77 °F
Humidity 94%
Rainfall 0.00 in
Snow Depth Not available.
5:47 AM 6:18 PM
Last Quarter, 42% visible
METAR VTUW 252000Z AUTO 10003KT 9999 FEW004/// OVC180/// 26/25 Q1006 A2971
Pressure 29.71 in
Visibility 6.2 miles
Clouds Few 400 ft
Overcast 18000 ft
Dew Point 77 °F
Humidity 94%
Rainfall 0.00 in
Snow Depth Not available.
5:47 AM 6:18 PM
Last Quarter, 42% visible
METAR VTUW 252000Z AUTO 10003KT 9999 FEW004/// OVC180/// 26/25 Q1006 A2971

10-Day Weather Forecast

No radar image for this location.
×

Almanac

Astronomy

Aug. 26, 2016 Rise Set
Actual Time
Civil Twilight
Nautical Twilight
Astronomical Twilight
Moon
Length of Visible Light
Length of Day
Tomorrow will be .
, % of the Moon is Illuminated

Today's Extremes

Country Highs Country Lows

Community

WunderPhotos

Upload Photos

1,934,921 photos uploaded!

WunderBlog® & News

Nearby

Air Quality

  Air Quality AQ Index Pollutant
Not available.

Snow Depth

Station Depth Elevation

Earthquake Activity

City Distance Mag. Time & Date
Minimum magnitude displayed is 2.5.

Coastal Water Temperatures

Place Temperature

Stations

Nearby Weather Stations

Station Location Temp. Windchill Dew Point Humidity Wind Precip. Elev Updated Type